Time;durP1;ratioP1;P1;durP2;ratioP2;P2;SDS_P1;SDS_P2;PMS_P1;PMS_P2;Temp;Humidity;BMP_temperature;BMP_pressure;BME280_temperature;BME280_humidity;BME280_pressure;Samples;Min_cycle;Max_cycle;Signal;HPM_P1;HPM_P2
2021/06/11 00:01:43;;;;;;;2.38;2.17;;;23.10;45.90;;;;;;5112945;28;20030;-69
2021/06/11 00:04:08;;;;;;;2.20;2.00;;;23.10;46.80;;;;;;5112537;28;20542;-70
2021/06/11 00:06:35;;;;;;;3.53;2.05;;;23.00;46.70;;;;;;5112729;28;20023;-70
2021/06/11 00:09:03;;;;;;;2.38;2.00;;;23.00;46.80;;;;;;5112736;28;20441;-70
2021/06/11 00:11:28;;;;;;;2.55;1.98;;;22.90;47.10;;;;;;5112169;28;20052;-70
2021/06/11 00:13:54;;;;;;;4.25;1.98;;;22.90;47.30;;;;;;5103351;28;20504;-70
2021/06/11 00:16:20;;;;;;;4.07;1.80;;;22.90;47.60;;;;;;5092247;28;20068;-69
2021/06/11 00:18:47;;;;;;;7.93;1.90;;;22.90;47.20;;;;;;5092223;28;20142;-70
2021/06/11 00:21:13;;;;;;;2.75;2.10;;;22.90;47.20;;;;;;5092387;28;20130;-70
2021/06/11 00:23:38;;;;;;;2.25;1.92;;;22.80;47.50;;;;;;5096547;28;20023;-70
2021/06/11 00:26:04;;;;;;;3.38;1.70;;;22.80;47.50;;;;;;5112648;28;20114;-70
2021/06/11 00:28:30;;;;;;;2.10;1.90;;;22.80;47.80;;;;;;5112601;28;20035;-70
2021/06/11 00:30:56;;;;;;;2.53;2.15;;;22.70;47.50;;;;;;5112066;28;20028;-70
2021/06/11 00:33:22;;;;;;;2.75;2.15;;;22.70;47.80;;;;;;5107773;28;20035;-70
2021/06/11 00:35:48;;;;;;;2.83;2.17;;;22.70;47.80;;;;;;5092196;28;20106;-70
2021/06/11 00:38:14;;;;;;;3.53;2.00;;;22.70;47.90;;;;;;5092217;28;20024;-70
2021/06/11 00:40:42;;;;;;;7.18;2.05;;;22.70;47.70;;;;;;5092026;28;20431;-70
2021/06/11 00:43:13;;;;;;;2.53;2.00;;;22.60;47.80;;;;;;5090530;28;20420;-70
2021/06/11 00:45:40;;;;;;;1.65;1.55;;;22.60;47.60;;;;;;5092164;28;20024;-70
2021/06/11 00:48:06;;;;;;;2.10;1.88;;;22.60;47.70;;;;;;5092076;28;20024;-70
2021/06/11 00:50:34;;;;;;;3.75;2.25;;;22.60;48.00;;;;;;5090621;28;20409;-70
2021/06/11 00:53:01;;;;;;;2.25;2.03;;;22.60;48.70;;;;;;5092020;28;20032;-70
2021/06/11 00:55:28;;;;;;;2.65;2.00;;;22.50;48.70;;;;;;5091770;28;20047;-70
2021/06/11 00:57:54;;;;;;;2.40;2.13;;;22.50;49.10;;;;;;5091924;28;20436;-70
2021/06/11 01:00:20;;;;;;;3.83;2.28;;;22.50;49.40;;;;;;5091843;28;20038;-69
2021/06/11 01:02:46;;;;;;;2.38;2.17;;;22.40;49.60;;;;;;5091786;28;20044;-70
2021/06/11 01:05:13;;;;;;;7.20;1.92;;;22.40;49.50;;;;;;5091834;28;20032;-70
2021/06/11 01:07:41;;;;;;;3.35;2.17;;;22.40;50.20;;;;;;5091676;28;20028;-70
2021/06/11 01:10:09;;;;;;;2.47;2.20;;;22.30;50.50;;;;;;5107965;28;20552;-70
2021/06/11 01:12:36;;;;;;;2.47;2.25;;;22.30;50.80;;;;;;5112045;28;20107;-70
2021/06/11 01:15:05;;;;;;;3.60;2.63;;;22.30;51.00;;;;;;5112054;28;20179;-70
2021/06/11 01:17:34;;;;;;;2.80;2.15;;;22.20;51.20;;;;;;5110484;28;20469;-69
2021/06/11 01:20:03;;;;;;;5.18;2.72;;;22.20;51.40;;;;;;5091766;28;20044;-70
2021/06/11 01:22:53;;;;;;;3.30;2.22;;;22.20;51.90;;;;;;5099678;28;20028;-70
2021/06/11 01:25:43;;;;;;;3.42;2.53;;;22.10;51.70;;;;;;5114557;28;20036;-69
2021/06/11 01:28:11;;;;;;;3.97;2.30;;;22.10;51.90;;;;;;5112013;27;20058;-70
2021/06/11 01:30:38;;;;;;;3.25;2.30;;;22.00;51.90;;;;;;5095327;28;20047;-70
2021/06/11 01:33:05;;;;;;;2.65;2.30;;;22.00;51.70;;;;;;5095231;28;20075;-70
2021/06/11 01:35:40;;;;;;;3.42;2.30;;;22.00;51.60;;;;;;5095265;28;20424;-71
2021/06/11 01:38:12;;;;;;;4.60;2.78;;;21.90;51.60;;;;;;5096449;28;20093;-70
2021/06/11 01:40:41;;;;;;;6.97;2.13;;;21.90;51.60;;;;;;5110552;28;20424;-70
2021/06/11 01:43:07;;;;;;;2.67;2.15;;;21.90;51.70;;;;;;5095121;28;20055;-70
2021/06/11 01:45:33;;;;;;;4.60;2.95;;;21.90;52.00;;;;;;5094953;28;20072;-70
2021/06/11 01:48:00;;;;;;;5.45;2.65;;;21.90;52.20;;;;;;5094843;28;20028;-70
2021/06/11 01:50:31;;;;;;;2.92;2.30;;;21.90;52.20;;;;;;5094659;28;20509;-70
2021/06/11 01:52:58;;;;;;;6.18;2.50;;;21.90;52.20;;;;;;5094903;28;20059;-70
2021/06/11 01:55:24;;;;;;;3.92;2.33;;;21.90;52.10;;;;;;5094709;28;20110;-69
2021/06/11 01:57:50;;;;;;;3.63;2.60;;;21.90;52.00;;;;;;5094555;28;20031;-70
2021/06/11 02:00:18;;;;;;;4.05;2.53;;;21.80;52.10;;;;;;5096816;28;20020;-70
2021/06/11 02:02:44;;;;;;;4.70;2.78;;;21.80;52.20;;;;;;5113786;28;20571;-69
2021/06/11 02:05:11;;;;;;;3.38;2.42;;;21.80;52.20;;;;;;5114903;27;20392;-70
2021/06/11 02:07:37;;;;;;;2.53;2.20;;;21.80;52.10;;;;;;5114974;28;20100;-70
2021/06/11 02:10:08;;;;;;;2.83;2.53;;;21.80;52.10;;;;;;5096062;28;20034;-70
2021/06/11 02:12:34;;;;;;;6.03;2.30;;;21.80;52.40;;;;;;5094512;28;20032;-70
2021/06/11 02:15:02;;;;;;;3.33;2.60;;;21.80;52.50;;;;;;5094556;28;20024;-70
2021/06/11 02:17:30;;;;;;;5.75;3.08;;;21.80;52.50;;;;;;5094268;28;20111;-69
2021/06/11 02:19:57;;;;;;;2.80;2.47;;;21.80;52.60;;;;;;5093102;28;20093;-70
2021/06/11 02:22:23;;;;;;;3.80;2.60;;;21.80;52.60;;;;;;5111757;28;20441;-69
2021/06/11 02:24:49;;;;;;;2.83;2.50;;;21.70;52.70;;;;;;5114623;28;20027;-70
2021/06/11 02:27:16;;;;;;;4.60;2.30;;;21.70;52.80;;;;;;5101833;28;20385;-70
2021/06/11 02:29:42;;;;;;;4.65;2.70;;;21.60;52.90;;;;;;5094159;28;20418;-69
2021/06/11 02:32:08;;;;;;;3.47;2.38;;;21.60;52.90;;;;;;5094002;28;20056;-70
2021/06/11 02:34:34;;;;;;;3.33;2.28;;;21.60;53.10;;;;;;5093410;28;20020;-70
2021/06/11 02:37:00;;;;;;;3.95;2.60;;;21.50;53.20;;;;;;5093912;28;20077;-70
2021/06/11 02:39:27;;;;;;;3.47;2.70;;;21.50;53.10;;;;;;5093818;28;20034;-70
2021/06/11 02:42:01;;;;;;;5.35;2.47;;;21.50;53.40;;;;;;5093751;28;20024;-70
2021/06/11 02:44:30;;;;;;;2.53;2.33;;;21.50;53.50;;;;;;5093847;28;20044;-70
2021/06/11 02:47:15;;;;;;;5.13;3.10;;;21.40;53.50;;;;;;5093682;28;20028;-70
2021/06/11 02:50:03;;;;;;;4.00;2.83;;;21.40;53.60;;;;;;5093697;28;20071;-70
2021/06/11 02:52:31;;;;;;;3.92;2.90;;;21.30;53.90;;;;;;5093614;28;20051;-70
2021/06/11 02:55:00;;;;;;;3.13;2.72;;;21.30;53.90;;;;;;5093568;28;20062;-70
2021/06/11 02:57:38;;;;;;;2.75;2.53;;;21.30;54.30;;;;;;5093500;28;20028;-70
2021/06/11 03:00:08;;;;;;;3.20;2.63;;;21.20;54.50;;;;;;5093563;28;20056;-70
2021/06/11 03:02:58;;;;;;;6.63;2.72;;;21.10;54.60;;;;;;5093446;28;20051;-69
2021/06/11 03:05:25;;;;;;;4.97;3.17;;;21.10;54.80;;;;;;5093323;28;20052;-70
2021/06/11 03:07:55;;;;;;;7.53;2.95;;;21.10;54.80;;;;;;5093160;28;20085;-70
2021/06/11 03:10:31;;;;;;;3.80;2.75;;;21.00;54.90;;;;;;5093375;28;20028;-70
2021/06/11 03:13:01;;;;;;;3.38;2.53;;;21.00;54.70;;;;;;5093316;28;20103;-70
2021/06/11 03:15:29;;;;;;;3.47;2.35;;;21.00;55.00;;;;;;5093269;28;20077;-70
2021/06/11 03:17:59;;;;;;;4.18;2.83;;;21.00;54.70;;;;;;5092967;28;20028;-70
2021/06/11 03:20:31;;;;;;;3.47;2.78;;;20.90;55.00;;;;;;5105779;28;20023;-69
2021/06/11 03:23:16;;;;;;;3.92;2.88;;;20.90;55.30;;;;;;5113458;28;20469;-70
2021/06/11 03:25:49;;;;;;;3.40;2.47;;;20.80;55.30;;;;;;5113469;28;20027;-70
2021/06/11 03:28:19;;;;;;;3.30;2.90;;;20.80;55.40;;;;;;5093796;27;20477;-70
2021/06/11 03:30:49;;;;;;;5.55;3.05;;;20.80;55.80;;;;;;5092946;28;20266;-70
2021/06/11 03:33:23;;;;;;;3.70;2.88;;;20.80;56.00;;;;;;5108428;28;20385;-69
2021/06/11 03:35:57;;;;;;;4.00;2.92;;;20.80;55.80;;;;;;5092932;28;20549;-69
2021/06/11 03:38:25;;;;;;;7.68;2.75;;;20.80;55.80;;;;;;5091622;28;20122;-70
2021/06/11 03:40:53;;;;;;;3.22;2.85;;;20.80;55.90;;;;;;5092529;28;20016;-70
2021/06/11 03:43:19;;;;;;;4.57;2.85;;;20.80;55.90;;;;;;5092715;28;20027;-70
2021/06/11 03:45:45;;;;;;;14.43;4.50;;;20.80;56.00;;;;;;5091743;28;20024;-69
2021/06/11 03:48:16;;;;;;;4.03;3.30;;;20.80;56.00;;;;;;5092521;28;20036;-70
2021/06/11 03:50:44;;;;;;;3.90;2.88;;;20.70;56.80;;;;;;5091061;28;20166;-70
2021/06/11 03:53:10;;;;;;;5.45;3.10;;;20.80;56.30;;;;;;5092707;28;20362;-70
2021/06/11 03:56:00;;;;;;;4.68;3.20;;;20.80;56.40;;;;;;5092414;28;20099;-70
2021/06/11 03:58:42;;;;;;;4.28;2.78;;;20.70;56.20;;;;;;5092535;28;20497;-70
2021/06/11 04:01:15;;;;;;;3.78;2.60;;;20.80;56.20;;;;;;5092478;28;20027;-70
2021/06/11 04:03:41;;;;;;;3.83;2.95;;;20.80;56.00;;;;;;5092422;28;20024;-70
2021/06/11 04:06:28;;;;;;;2.95;2.30;;;20.80;56.10;;;;;;5092416;28;20496;-70
2021/06/11 04:09:00;;;;;;;5.13;2.55;;;20.80;56.10;;;;;;5092428;28;20084;-69
2021/06/11 04:11:29;;;;;;;2.92;2.58;;;20.90;55.90;;;;;;5092543;28;20024;-70
2021/06/11 04:13:58;;;;;;;3.40;2.58;;;20.90;55.90;;;;;;5092190;28;20035;-70
2021/06/11 04:16:33;;;;;;;3.25;2.75;;;20.90;55.90;;;;;;5092418;28;20047;-69
2021/06/11 04:19:02;;;;;;;6.47;2.90;;;20.90;55.90;;;;;;5105120;28;20100;-69
2021/06/11 04:21:33;;;;;;;10.68;3.63;;;21.00;55.90;;;;;;5112751;28;20110;-69
2021/06/11 04:24:06;;;;;;;6.35;2.95;;;21.00;55.90;;;;;;5111964;28;20051;-70
2021/06/11 04:26:35;;;;;;;4.10;3.00;;;21.10;55.80;;;;;;5105966;28;20035;-70
2021/06/11 04:29:06;;;;;;;6.40;2.67;;;21.20;55.70;;;;;;5092992;28;20024;-70
2021/06/11 04:31:32;;;;;;;10.35;3.20;;;21.20;55.70;;;;;;5092928;28;20470;-70
2021/06/11 04:33:59;;;;;;;7.53;4.05;;;21.20;55.70;;;;;;5092771;28;20031;-70
2021/06/11 04:36:26;;;;;;;5.88;3.13;;;21.30;55.60;;;;;;5091528;28;20023;-70
2021/06/11 04:38:57;;;;;;;4.88;3.33;;;21.40;55.60;;;;;;5092841;28;20020;-69
2021/06/11 04:41:24;;;;;;;7.68;3.97;;;21.40;55.50;;;;;;5092907;28;20027;-69
2021/06/11 04:43:51;;;;;;;11.23;4.40;;;21.50;55.50;;;;;;5091611;28;20097;-70
2021/06/11 04:46:17;;;;;;;11.82;5.20;;;21.50;55.50;;;;;;5092480;28;20024;-70
2021/06/11 04:48:43;;;;;;;10.88;4.38;;;21.50;55.50;;;;;;5091488;28;20024;-70
2021/06/11 04:51:09;;;;;;;7.50;3.97;;;21.60;55.40;;;;;;5092605;28;20408;-70
2021/06/11 04:53:34;;;;;;;10.93;4.10;;;21.60;55.20;;;;;;5092525;28;20024;-70
2021/06/11 04:56:00;;;;;;;4.50;3.58;;;21.70;55.10;;;;;;5091022;28;20494;-70
2021/06/11 04:58:28;;;;;;;6.47;3.85;;;21.70;55.10;;;;;;5095773;28;20016;-70
2021/06/11 05:00:54;;;;;;;5.82;3.50;;;21.80;55.00;;;;;;5096714;28;20012;-70
2021/06/11 05:03:20;;;;;;;3.55;3.20;;;21.90;54.80;;;;;;5096653;28;20542;-70
2021/06/11 05:05:46;;;;;;;5.57;3.65;;;22.00;54.60;;;;;;5096550;28;20027;-70
2021/06/11 05:08:11;;;;;;;19.40;4.60;;;22.00;54.50;;;;;;5095191;28;20028;-70
2021/06/11 05:10:39;;;;;;;21.05;5.25;;;22.10;54.50;;;;;;5096330;28;20036;-70
2021/06/11 05:13:05;;;;;;;10.77;4.18;;;22.20;54.50;;;;;;5096477;28;20545;-70
2021/06/11 05:15:31;;;;;;;8.60;3.60;;;22.30;54.40;;;;;;5096587;28;20055;-71
2021/06/11 05:18:03;;;;;;;6.68;3.53;;;22.40;54.20;;;;;;5110708;28;20027;-70
2021/06/11 05:20:29;;;;;;;4.47;3.15;;;22.50;53.90;;;;;;5098822;28;20032;-70
2021/06/11 05:22:55;;;;;;;8.60;3.30;;;22.50;53.80;;;;;;5096086;28;20039;-70
2021/06/11 05:25:21;;;;;;;5.43;3.83;;;22.60;53.60;;;;;;5096181;28;20109;-70
2021/06/11 05:27:46;;;;;;;4.43;3.63;;;22.70;53.40;;;;;;5096140;28;20032;-70
2021/06/11 05:30:13;;;;;;;8.88;4.05;;;22.80;53.20;;;;;;5095868;28;20036;-70
2021/06/11 05:32:39;;;;;;;3.95;3.22;;;22.90;53.10;;;;;;5095832;28;20028;-70
2021/06/11 05:35:05;;;;;;;6.22;3.97;;;22.90;52.80;;;;;;5095967;28;20568;-70
2021/06/11 05:37:31;;;;;;;8.52;3.95;;;23.00;52.60;;;;;;5095310;28;20020;-70
2021/06/11 05:39:56;;;;;;;12.40;4.13;;;23.00;52.50;;;;;;5095288;28;20024;-70
2021/06/11 05:42:22;;;;;;;4.20;3.50;;;23.00;52.30;;;;;;5094091;28;20500;-70
2021/06/11 05:44:48;;;;;;;8.02;4.38;;;23.00;52.30;;;;;;5094288;28;20057;-70
2021/06/11 05:47:14;;;;;;;5.43;4.03;;;23.10;52.30;;;;;;5095777;28;20164;-70
2021/06/11 05:49:40;;;;;;;5.28;4.13;;;23.20;52.30;;;;;;5095224;28;20047;-70
2021/06/11 05:52:05;;;;;;;5.25;4.03;;;23.20;52.10;;;;;;5095401;28;20024;-70
2021/06/11 05:54:31;;;;;;;5.68;4.40;;;23.30;52.00;;;;;;5095584;28;20020;-70
2021/06/11 05:56:58;;;;;;;10.70;5.10;;;23.30;51.90;;;;;;5095616;28;20030;-70
2021/06/11 05:59:24;;;;;;;5.47;3.75;;;23.30;51.70;;;;;;5098385;28;20103;-69
2021/06/11 06:01:50;;;;;;;5.57;4.00;;;23.40;51.40;;;;;;5112471;28;20480;-70
2021/06/11 06:04:16;;;;;;;5.00;3.80;;;23.40;51.40;;;;;;5115546;28;20020;-70
2021/06/11 06:06:41;;;;;;;6.32;4.07;;;23.50;51.00;;;;;;5115698;28;20102;-70
2021/06/11 06:09:07;;;;;;;5.63;5.00;;;23.50;50.90;;;;;;5110896;28;20020;-70
2021/06/11 06:11:33;;;;;;;6.38;5.22;;;23.50;50.50;;;;;;5095256;28;20421;-70
2021/06/11 06:13:59;;;;;;;9.05;5.45;;;23.60;51.20;;;;;;5095194;28;20036;-70
2021/06/11 06:16:25;;;;;;;6.43;4.32;;;23.60;50.60;;;;;;5109843;28;20146;-70
2021/06/11 06:18:51;;;;;;;7.00;4.65;;;23.70;50.60;;;;;;5114785;28;20434;-70
2021/06/11 06:21:17;;;;;;;7.40;4.38;;;23.70;50.50;;;;;;5095133;28;20017;-70
2021/06/11 06:23:43;;;;;;;8.07;5.50;;;23.80;50.70;;;;;;5095032;28;20020;-70
2021/06/11 06:26:08;;;;;;;6.07;5.32;;;23.90;50.40;;;;;;5095034;28;20036;-70
2021/06/11 06:28:34;;;;;;;10.15;5.63;;;23.90;50.10;;;;;;5094790;28;20025;-70
2021/06/11 06:31:00;;;;;;;8.25;5.90;;;24.00;50.20;;;;;;5094744;28;20028;-70
2021/06/11 06:33:26;;;;;;;8.88;6.70;;;24.10;50.00;;;;;;5094776;28;20024;-70
2021/06/11 06:35:51;;;;;;;7.78;6.00;;;24.10;49.90;;;;;;5100716;28;20031;-70
2021/06/11 06:38:18;;;;;;;8.35;5.97;;;24.20;49.90;;;;;;5114793;28;20047;-69
2021/06/11 06:40:47;;;;;;;8.05;5.88;;;24.30;49.80;;;;;;5115189;28;20100;-69
2021/06/11 06:43:13;;;;;;;10.27;6.18;;;24.30;49.80;;;;;;5115154;28;20015;-69
2021/06/11 06:45:39;;;;;;;8.13;6.57;;;24.40;49.60;;;;;;5112193;28;20430;-68
2021/06/11 06:48:06;;;;;;;6.80;5.45;;;24.50;49.40;;;;;;5094611;28;20020;-69
2021/06/11 06:50:32;;;;;;;7.72;5.85;;;24.50;49.20;;;;;;5094154;28;20122;-69
2021/06/11 06:53:03;;;;;;;7.88;6.40;;;24.60;49.00;;;;;;5092878;28;20501;-69
2021/06/11 06:55:29;;;;;;;9.68;5.85;;;24.70;48.80;;;;;;5094239;28;20020;-68
2021/06/11 06:57:55;;;;;;;7.43;5.38;;;24.70;48.80;;;;;;5094418;28;20020;-69
2021/06/11 07:00:21;;;;;;;6.93;5.03;;;24.80;48.50;;;;;;5093517;28;20541;-69
2021/06/11 07:02:46;;;;;;;6.57;4.85;;;24.80;48.60;;;;;;5098962;28;20028;-69
2021/06/11 07:05:15;;;;;;;7.18;5.00;;;24.90;48.50;;;;;;5093971;28;20107;-69
2021/06/11 07:07:41;;;;;;;5.72;4.20;;;25.00;48.40;;;;;;5093970;28;20020;-69
2021/06/11 07:10:07;;;;;;;5.25;4.75;;;25.10;48.70;;;;;;5094174;28;20385;-69
2021/06/11 07:12:33;;;;;;;8.57;5.47;;;25.20;48.00;;;;;;5093936;28;20020;-69
2021/06/11 07:14:59;;;;;;;5.10;4.60;;;25.30;47.70;;;;;;5108079;28;20538;-69
2021/06/11 07:17:26;;;;;;;14.02;5.18;;;25.40;47.50;;;;;;5112727;28;20051;-68
2021/06/11 07:19:53;;;;;;;6.70;5.18;;;25.50;47.40;;;;;;5102694;28;20430;-69
2021/06/11 07:22:19;;;;;;;6.18;5.03;;;25.60;47.30;;;;;;5100978;28;20028;-69
2021/06/11 07:24:45;;;;;;;5.90;5.30;;;25.60;47.00;;;;;;5093900;28;20441;-69
2021/06/11 07:27:11;;;;;;;7.95;5.00;;;25.60;46.80;;;;;;5093720;28;20115;-69
2021/06/11 07:29:43;;;;;;;8.65;5.68;;;25.70;46.80;;;;;;5093622;28;20028;-68
2021/06/11 07:32:13;;;;;;;8.40;4.63;;;25.80;46.70;;;;;;5093372;28;20456;-68
2021/06/11 07:34:39;;;;;;;7.82;5.38;;;25.90;46.70;;;;;;5093352;28;20020;-69
2021/06/11 07:37:05;;;;;;;5.20;4.53;;;26.00;46.40;;;;;;5102169;28;20051;-69
2021/06/11 07:39:32;;;;;;;4.85;4.35;;;26.10;46.20;;;;;;5110090;28;20023;-69
2021/06/11 07:41:58;;;;;;;6.70;5.22;;;26.10;46.30;;;;;;5114002;28;20031;-69
2021/06/11 07:44:24;;;;;;;6.72;5.70;;;26.20;45.90;;;;;;5113248;28;20020;-69
2021/06/11 07:46:50;;;;;;;8.60;5.18;;;26.30;45.50;;;;;;5103646;28;20569;-69
2021/06/11 07:49:16;;;;;;;5.65;4.70;;;26.40;45.60;;;;;;5093260;28;20052;-69
2021/06/11 07:51:42;;;;;;;6.38;5.25;;;26.50;45.70;;;;;;5102039;28;20058;-69
2021/06/11 07:54:08;;;;;;;6.50;5.07;;;26.50;45.50;;;;;;5113602;28;20035;-69
2021/06/11 07:56:36;;;;;;;9.07;5.32;;;26.70;45.40;;;;;;5109959;28;20023;-70
2021/06/11 07:59:03;;;;;;;6.50;4.90;;;26.80;45.00;;;;;;5104704;28;20026;-69
2021/06/11 08:01:31;;;;;;;6.47;4.65;;;26.80;44.90;;;;;;5112431;28;20069;-69
2021/06/11 08:03:57;;;;;;;15.40;5.90;;;26.90;45.00;;;;;;5111784;28;20039;-70
2021/06/11 08:06:22;;;;;;;5.30;4.80;;;27.00;44.60;;;;;;5103263;28;20024;-70
2021/06/11 08:08:48;;;;;;;11.75;6.15;;;27.00;44.40;;;;;;5093371;28;20031;-70
2021/06/11 08:11:14;;;;;;;9.10;5.32;;;27.10;44.00;;;;;;5099926;28;20076;-70
2021/06/11 08:13:40;;;;;;;12.15;6.07;;;27.10;44.00;;;;;;5111145;28;20035;-70
2021/06/11 08:16:06;;;;;;;6.70;5.47;;;27.10;43.90;;;;;;5108936;28;20023;-69
2021/06/11 08:18:32;;;;;;;8.68;6.50;;;27.10;44.00;;;;;;5092576;28;20024;-70
2021/06/11 08:20:58;;;;;;;6.63;5.18;;;27.10;44.00;;;;;;5091835;28;20541;-69
2021/06/11 08:23:24;;;;;;;9.35;5.85;;;27.10;44.30;;;;;;5091901;28;20108;-70
2021/06/11 08:25:49;;;;;;;7.40;5.18;;;27.20;44.20;;;;;;5094305;28;20032;-69
2021/06/11 08:28:15;;;;;;;4.88;4.15;;;27.30;44.30;;;;;;5099461;28;20028;-70
2021/06/11 08:30:41;;;;;;;5.50;4.80;;;27.30;44.00;;;;;;5112056;28;20028;-70
2021/06/11 08:33:07;;;;;;;7.35;5.50;;;27.40;43.80;;;;;;5099132;28;20028;-70
2021/06/11 08:35:33;;;;;;;8.23;6.05;;;27.50;43.50;;;;;;5097148;28;20119;-69
2021/06/11 08:37:59;;;;;;;7.88;5.35;;;27.50;43.30;;;;;;5110622;28;20106;-70
2021/06/11 08:40:26;;;;;;;8.38;5.10;;;27.50;43.40;;;;;;5100283;28;20438;-70
2021/06/11 08:42:53;;;;;;;7.03;4.95;;;27.40;43.30;;;;;;5099371;28;20039;-69
2021/06/11 08:45:20;;;;;;;6.20;5.20;;;27.40;43.30;;;;;;5100287;28;20392;-70
2021/06/11 08:47:49;;;;;;;6.95;6.20;;;27.40;43.20;;;;;;5100486;28;20024;-70
2021/06/11 08:50:29;;;;;;;7.50;5.40;;;27.40;43.20;;;;;;5110813;28;20047;-69
2021/06/11 08:52:56;;;;;;;5.82;5.25;;;27.30;43.30;;;;;;5113748;28;20073;-69
2021/06/11 08:55:22;;;;;;;6.53;5.30;;;27.30;43.20;;;;;;5096726;28;20020;-70
2021/06/11 08:57:48;;;;;;;6.20;5.13;;;27.20;43.30;;;;;;5096542;28;20035;-70
2021/06/11 09:00:15;;;;;;;9.55;5.78;;;27.10;43.50;;;;;;5097471;28;20024;-69
2021/06/11 09:03:09;;;;;;;10.75;5.88;;;27.10;43.70;;;;;;5106081;28;20020;-69
2021/06/11 09:05:36;;;;;;;6.93;5.10;;;27.00;43.80;;;;;;5097885;28;20073;-70
2021/06/11 09:08:23;;;;;;;9.13;5.30;;;27.00;43.90;;;;;;5096552;28;20358;-70
2021/06/11 09:10:51;;;;;;;7.78;5.18;;;27.00;43.90;;;;;;5098512;28;20028;-69
2021/06/11 09:13:28;;;;;;;6.72;5.97;;;27.00;44.00;;;;;;5096134;28;20024;-69
2021/06/11 09:16:13;;;;;;;6.78;6.00;;;26.90;44.00;;;;;;5110577;28;20020;-70
2021/06/11 09:18:56;;;;;;;7.18;5.82;;;26.90;44.00;;;;;;5094875;28;20035;-70
2021/06/11 09:21:44;;;;;;;6.10;4.93;;;26.90;43.90;;;;;;5099841;28;20512;-69
2021/06/11 09:27:07;;;;;;;6.80;5.15;;;26.80;43.80;;;;;;5095960;28;20073;-69
2021/06/11 09:29:44;;;;;;;7.38;5.13;;;26.80;43.70;;;;;;5096043;28;20111;-69
2021/06/11 09:32:27;;;;;;;5.75;4.90;;;26.90;43.90;;;;;;5094633;28;20031;-69
2021/06/11 09:34:58;;;;;;;6.78;5.25;;;26.90;44.00;;;;;;5095850;28;20020;-69
2021/06/11 09:37:29;;;;;;;5.15;4.20;;;27.00;43.40;;;;;;5094801;28;20041;-70
2021/06/11 09:39:58;;;;;;;5.47;4.65;;;27.10;43.30;;;;;;5099072;28;20335;-69
2021/06/11 09:42:33;;;;;;;5.45;4.95;;;27.20;43.00;;;;;;5112973;27;20034;-69
2021/06/11 09:45:01;;;;;;;5.72;4.25;;;27.30;42.80;;;;;;5101283;28;20111;-70
2021/06/11 09:47:43;;;;;;;6.05;4.72;;;27.40;42.60;;;;;;5105703;28;20103;-70
2021/06/11 09:50:11;;;;;;;8.25;4.72;;;27.50;42.60;;;;;;5094824;28;20059;-70
2021/06/11 09:52:53;;;;;;;6.10;4.57;;;27.50;42.30;;;;;;5095259;28;20020;-70
2021/06/11 09:55:47;;;;;;;10.70;4.82;;;27.50;41.90;;;;;;5094118;28;20020;-69
2021/06/11 09:58:29;;;;;;;7.10;4.35;;;27.50;41.80;;;;;;5094032;28;20036;-70
2021/06/11 10:00:55;;;;;;;5.38;4.22;;;27.50;42.00;;;;;;5095633;28;20024;-69
2021/06/11 10:03:33;;;;;;;4.90;4.35;;;27.50;42.40;;;;;;5095524;28;20024;-70
2021/06/11 10:06:01;;;;;;;12.70;5.15;;;27.50;42.60;;;;;;5095344;28;20078;-70
2021/06/11 10:08:28;;;;;;;4.90;4.03;;;27.50;42.20;;;;;;5095395;28;20016;-70
2021/06/11 10:10:59;;;;;;;5.22;3.97;;;27.50;41.50;;;;;;5110441;28;20030;-70
2021/06/11 10:13:25;;;;;;;5.15;4.05;;;27.50;41.90;;;;;;5115735;27;20113;-70
2021/06/11 10:15:53;;;;;;;5.32;4.18;;;27.50;41.70;;;;;;5114382;28;20031;-70
2021/06/11 10:18:23;;;;;;;4.57;3.35;;;27.50;41.40;;;;;;5115602;28;20027;-70
2021/06/11 10:20:49;;;;;;;3.45;3.15;;;27.60;40.20;;;;;;5115518;28;20032;-70
2021/06/11 10:23:19;;;;;;;5.07;3.50;;;27.70;41.00;;;;;;5115558;28;20024;-70
2021/06/11 10:25:51;;;;;;;4.38;3.38;;;27.80;40.50;;;;;;5115456;28;20047;-70
2021/06/11 10:28:36;;;;;;;10.80;3.35;;;28.00;40.70;;;;;;5094945;28;20085;-69
2021/06/11 10:31:05;;;;;;;3.53;2.92;;;28.20;38.80;;;;;;5094992;28;20107;-70
2021/06/11 10:33:50;;;;;;;6.88;3.00;;;28.40;38.10;;;;;;5094814;28;20427;-70
2021/06/11 10:36:25;;;;;;;3.22;2.92;;;28.70;38.70;;;;;;5094599;28;20012;-70
2021/06/11 10:38:55;;;;;;;4.60;2.90;;;29.00;38.30;;;;;;5094824;28;20024;-70
2021/06/11 10:41:22;;;;;;;5.45;2.78;;;29.20;38.10;;;;;;5094122;28;20028;-70
2021/06/11 10:43:49;;;;;;;4.25;3.33;;;29.40;37.40;;;;;;5094491;28;20478;-70
2021/06/11 10:46:23;;;;;;;5.70;3.60;;;29.50;36.00;;;;;;5093050;28;20032;-70
2021/06/11 10:49:11;;;;;;;7.22;3.88;;;29.70;36.20;;;;;;5094340;28;20027;-70
2021/06/11 10:51:50;;;;;;;8.05;4.30;;;29.80;36.90;;;;;;5094148;28;20119;-70
2021/06/11 10:54:16;;;;;;;5.32;4.35;;;29.90;35.70;;;;;;5100378;28;20020;-70
2021/06/11 10:57:08;;;;;;;5.93;3.08;;;30.00;35.40;;;;;;5114302;28;20531;-70
2021/06/11 10:59:39;;;;;;;4.07;3.30;;;30.10;36.50;;;;;;5103442;28;20027;-70
2021/06/11 11:02:06;;;;;;;6.40;3.75;;;30.20;35.50;;;;;;5093748;28;20020;-70
2021/06/11 11:04:37;;;;;;;3.85;2.72;;;30.20;35.50;;;;;;5099913;28;20030;-70
2021/06/11 11:07:24;;;;;;;3.72;3.33;;;30.20;35.90;;;;;;5111287;28;20468;-70
2021/06/11 11:09:55;;;;;;;6.97;2.88;;;30.20;36.10;;;;;;5114274;28;20032;-70
2021/06/11 11:12:27;;;;;;;4.28;3.17;;;30.30;35.50;;;;;;5111295;28;20027;-70
2021/06/11 11:14:54;;;;;;;5.18;3.20;;;30.30;35.50;;;;;;5114320;28;20492;-70
2021/06/11 11:17:21;;;;;;;4.03;3.30;;;30.40;35.50;;;;;;5114306;28;20100;-70
2021/06/11 11:19:52;;;;;;;4.45;3.17;;;30.40;35.10;;;;;;5114311;28;20518;-70
2021/06/11 11:22:32;;;;;;;6.55;2.97;;;30.30;35.10;;;;;;5113976;27;20027;-70
2021/06/11 11:25:02;;;;;;;3.00;2.70;;;30.40;35.30;;;;;;5114184;28;20595;-70
2021/06/11 11:27:28;;;;;;;3.03;2.67;;;30.40;34.20;;;;;;5113951;28;20051;-70
2021/06/11 11:29:55;;;;;;;3.83;2.92;;;30.30;33.90;;;;;;5112621;28;20034;-70
2021/06/11 11:32:21;;;;;;;9.02;2.75;;;30.30;34.60;;;;;;5108871;28;20028;-70
2021/06/11 11:34:47;;;;;;;3.80;2.70;;;30.20;34.00;;;;;;5106304;28;20030;-70
2021/06/11 11:37:14;;;;;;;2.60;2.35;;;30.10;34.10;;;;;;5113923;28;20376;-70
2021/06/11 11:39:40;;;;;;;2.47;2.28;;;30.00;34.20;;;;;;5107379;28;20473;-70
2021/06/11 11:42:11;;;;;;;7.78;2.63;;;29.90;34.30;;;;;;5107276;28;20030;-70
2021/06/11 11:44:37;;;;;;;6.43;2.88;;;29.80;34.30;;;;;;5112894;28;20023;-70
2021/06/11 11:47:03;;;;;;;4.65;2.60;;;29.80;33.50;;;;;;5093223;28;20031;-70
2021/06/11 11:49:29;;;;;;;2.78;2.40;;;29.80;33.30;;;;;;5094233;28;20023;-70
2021/06/11 11:51:55;;;;;;;2.42;2.22;;;29.80;34.00;;;;;;5093320;28;20525;-70
2021/06/11 11:54:21;;;;;;;3.17;2.45;;;30.00;34.10;;;;;;5093082;28;20575;-70
2021/06/11 11:56:47;;;;;;;3.88;2.42;;;30.00;32.50;;;;;;5093195;28;20028;-70
2021/06/11 11:59:13;;;;;;;2.78;2.30;;;30.10;32.80;;;;;;5093194;28;20020;-70
2021/06/11 12:01:41;;;;;;;2.83;2.25;;;30.20;33.30;;;;;;5093220;28;20377;-70
2021/06/11 12:04:07;;;;;;;3.30;1.98;;;30.40;32.90;;;;;;5092601;28;20549;-70
2021/06/11 12:06:32;;;;;;;8.35;2.80;;;30.60;32.40;;;;;;5094441;28;20032;-70
2021/06/11 12:08:58;;;;;;;3.38;2.83;;;30.70;32.20;;;;;;5113328;28;20031;-70
2021/06/11 12:11:24;;;;;;;3.15;2.20;;;30.80;31.90;;;;;;5111890;28;20027;-70
2021/06/11 12:13:50;;;;;;;5.43;2.13;;;31.00;31.80;;;;;;5112132;28;20031;-70
2021/06/11 12:16:16;;;;;;;3.00;1.75;;;31.10;30.60;;;;;;5113311;28;20403;-70
2021/06/11 12:18:42;;;;;;;2.95;2.00;;;31.20;31.40;;;;;;5113243;28;20088;-70
2021/06/11 12:21:09;;;;;;;3.72;2.40;;;31.30;31.30;;;;;;5113214;28;20020;-70
2021/06/11 12:23:38;;;;;;;2.30;2.05;;;31.40;31.20;;;;;;5113199;28;20023;-70
2021/06/11 12:26:04;;;;;;;2.17;1.98;;;31.50;30.50;;;;;;5111802;28;20073;-70
2021/06/11 12:28:30;;;;;;;3.78;2.22;;;31.50;30.30;;;;;;5111728;28;20115;-70
2021/06/11 12:30:56;;;;;;;2.13;1.95;;;31.40;30.00;;;;;;5113092;28;20493;-70
2021/06/11 12:33:22;;;;;;;4.43;2.20;;;31.40;30.00;;;;;;5111369;28;20024;-70
2021/06/11 12:35:49;;;;;;;3.25;1.92;;;31.20;29.70;;;;;;5111630;28;20020;-70
2021/06/11 12:38:15;;;;;;;6.38;2.15;;;31.10;29.70;;;;;;5112833;28;20026;-70
2021/06/11 12:40:44;;;;;;;3.10;2.40;;;31.00;30.10;;;;;;5112925;28;20027;-70
2021/06/11 12:43:14;;;;;;;2.72;2.03;;;30.90;29.60;;;;;;5112895;28;20381;-70
2021/06/11 12:45:42;;;;;;;3.22;1.65;;;30.80;30.00;;;;;;5113068;28;20019;-70
2021/06/11 12:48:11;;;;;;;2.05;1.90;;;30.90;30.40;;;;;;5111510;28;20389;-70
2021/06/11 12:50:40;;;;;;;3.05;2.30;;;31.00;30.40;;;;;;5101975;28;20390;-70
2021/06/11 12:53:06;;;;;;;2.20;1.85;;;31.00;30.90;;;;;;5092507;28;20047;-70
2021/06/11 12:55:35;;;;;;;2.30;2.08;;;31.10;30.70;;;;;;5091342;28;20020;-70
2021/06/11 12:58:01;;;;;;;2.80;2.20;;;31.00;30.30;;;;;;5092868;28;20442;-72